sensor_id;sensor_type;location;lat;lon;timestamp;temperature;humidity
2124;DHT22;1068;52.460;13.528;2022-07-03T00:01:50;17.80;99.90
2124;DHT22;1068;52.460;13.528;2022-07-03T00:04:18;17.80;99.90
2124;DHT22;1068;52.460;13.528;2022-07-03T00:06:45;17.60;99.90
2124;DHT22;1068;52.460;13.528;2022-07-03T00:09:12;17.70;99.90
2124;DHT22;1068;52.460;13.528;2022-07-03T00:11:39;17.60;99.90
2124;DHT22;1068;52.460;13.528;2022-07-03T00:14:05;17.60;99.90
2124;DHT22;1068;52.460;13.528;2022-07-03T00:16:32;17.60;99.90
2124;DHT22;1068;52.460;13.528;2022-07-03T00:18:58;17.40;99.90
2124;DHT22;1068;52.460;13.528;2022-07-03T00:21:29;17.50;99.90
2124;DHT22;1068;52.460;13.528;2022-07-03T00:24:02;17.60;99.90
2124;DHT22;1068;52.460;13.528;2022-07-03T00:26:31;17.70;99.90
2124;DHT22;1068;52.460;13.528;2022-07-03T00:29:00;17.80;99.90
2124;DHT22;1068;52.460;13.528;2022-07-03T00:31:28;17.60;99.90
2124;DHT22;1068;52.460;13.528;2022-07-03T00:33:56;17.60;99.90
2124;DHT22;1068;52.460;13.528;2022-07-03T00:36:26;17.50;99.90
2124;DHT22;1068;52.460;13.528;2022-07-03T00:38:53;17.50;99.90
2124;DHT22;1068;52.460;13.528;2022-07-03T00:41:25;17.60;99.90
2124;DHT22;1068;52.460;13.528;2022-07-03T00:43:52;17.60;99.90
2124;DHT22;1068;52.460;13.528;2022-07-03T00:46:21;17.50;99.90
2124;DHT22;1068;52.460;13.528;2022-07-03T00:48:49;17.30;99.90
2124;DHT22;1068;52.460;13.528;2022-07-03T00:51:20;17.30;99.90
2124;DHT22;1068;52.460;13.528;2022-07-03T00:53:49;17.40;99.90
2124;DHT22;1068;52.460;13.528;2022-07-03T00:56:16;17.20;99.90
2124;DHT22;1068;52.460;13.528;2022-07-03T00:58:45;17.10;99.90
2124;DHT22;1068;52.460;13.528;2022-07-03T01:01:16;17.20;99.90
2124;DHT22;1068;52.460;13.528;2022-07-03T01:03:45;17.10;99.90
2124;DHT22;1068;52.460;13.528;2022-07-03T01:06:14;17.00;99.90
2124;DHT22;1068;52.460;13.528;2022-07-03T01:08:42;16.90;99.90
2124;DHT22;1068;52.460;13.528;2022-07-03T01:11:20;16.80;99.90
2124;DHT22;1068;52.460;13.528;2022-07-03T01:13:58;17.00;99.90
2124;DHT22;1068;52.460;13.528;2022-07-03T01:16:31;17.10;99.90
2124;DHT22;1068;52.460;13.528;2022-07-03T01:19:10;17.20;99.90
2124;DHT22;1068;52.460;13.528;2022-07-03T01:21:55;17.20;99.90
2124;DHT22;1068;52.460;13.528;2022-07-03T01:24:42;17.10;99.90
2124;DHT22;1068;52.460;13.528;2022-07-03T01:27:14;17.30;99.90
2124;DHT22;1068;52.460;13.528;2022-07-03T01:29:51;17.50;99.90
2124;DHT22;1068;52.460;13.528;2022-07-03T01:32:19;17.50;99.90
2124;DHT22;1068;52.460;13.528;2022-07-03T01:34:52;17.60;99.90
2124;DHT22;1068;52.460;13.528;2022-07-03T01:37:21;17.70;99.90
2124;DHT22;1068;52.460;13.528;2022-07-03T01:39:52;17.80;99.90
2124;DHT22;1068;52.460;13.528;2022-07-03T01:42:23;17.90;99.90
2124;DHT22;1068;52.460;13.528;2022-07-03T01:44:51;17.80;99.90
2124;DHT22;1068;52.460;13.528;2022-07-03T01:47:18;17.80;99.90
2124;DHT22;1068;52.460;13.528;2022-07-03T01:49:45;17.80;99.90
2124;DHT22;1068;52.460;13.528;2022-07-03T01:52:15;17.90;99.90
2124;DHT22;1068;52.460;13.528;2022-07-03T01:54:42;17.90;99.90
2124;DHT22;1068;52.460;13.528;2022-07-03T01:57:10;17.80;99.90
2124;DHT22;1068;52.460;13.528;2022-07-03T01:59:38;17.80;99.90
2124;DHT22;1068;52.460;13.528;2022-07-03T02:02:12;17.80;99.90
2124;DHT22;1068;52.460;13.528;2022-07-03T02:04:53;17.80;99.90
2124;DHT22;1068;52.460;13.528;2022-07-03T02:07:23;17.80;99.90
2124;DHT22;1068;52.460;13.528;2022-07-03T02:10:02;17.80;99.90
2124;DHT22;1068;52.460;13.528;2022-07-03T02:12:37;17.80;99.90
2124;DHT22;1068;52.460;13.528;2022-07-03T02:15:08;17.80;99.90
2124;DHT22;1068;52.460;13.528;2022-07-03T02:17:37;17.80;99.90
2124;DHT22;1068;52.460;13.528;2022-07-03T02:20:06;17.80;99.90
2124;DHT22;1068;52.460;13.528;2022-07-03T02:22:35;17.80;99.90
2124;DHT22;1068;52.460;13.528;2022-07-03T02:25:05;17.80;99.90
2124;DHT22;1068;52.460;13.528;2022-07-03T02:27:37;17.70;99.90
2124;DHT22;1068;52.460;13.528;2022-07-03T02:30:07;17.70;99.90
2124;DHT22;1068;52.460;13.528;2022-07-03T02:32:38;17.70;99.90
2124;DHT22;1068;52.460;13.528;2022-07-03T02:35:10;17.70;99.90
2124;DHT22;1068;52.460;13.528;2022-07-03T02:37:41;17.60;99.90
2124;DHT22;1068;52.460;13.528;2022-07-03T02:40:20;17.40;99.90
2124;DHT22;1068;52.460;13.528;2022-07-03T02:42:54;17.20;99.90
2124;DHT22;1068;52.460;13.528;2022-07-03T02:45:25;17.10;99.90
2124;DHT22;1068;52.460;13.528;2022-07-03T02:48:01;17.10;99.90
2124;DHT22;1068;52.460;13.528;2022-07-03T02:50:28;17.00;99.90
2124;DHT22;1068;52.460;13.528;2022-07-03T02:53:04;17.10;99.90
2124;DHT22;1068;52.460;13.528;2022-07-03T02:55:39;17.10;99.90
2124;DHT22;1068;52.460;13.528;2022-07-03T03:01:09;17.10;99.90
2124;DHT22;1068;52.460;13.528;2022-07-03T03:03:44;17.20;99.90
2124;DHT22;1068;52.460;13.528;2022-07-03T03:06:13;17.20;99.90
2124;DHT22;1068;52.460;13.528;2022-07-03T03:08:43;17.30;99.90
2124;DHT22;1068;52.460;13.528;2022-07-03T03:11:23;16.90;99.90
2124;DHT22;1068;52.460;13.528;2022-07-03T03:13:50;16.80;99.90
2124;DHT22;1068;52.460;13.528;2022-07-03T03:16:22;16.80;99.90
2124;DHT22;1068;52.460;13.528;2022-07-03T03:18:49;16.90;99.90
2124;DHT22;1068;52.460;13.528;2022-07-03T03:21:17;17.00;99.90
2124;DHT22;1068;52.460;13.528;2022-07-03T03:23:46;17.10;99.90
2124;DHT22;1068;52.460;13.528;2022-07-03T03:26:14;17.20;99.90
2124;DHT22;1068;52.460;13.528;2022-07-03T03:28:41;17.30;99.90
2124;DHT22;1068;52.460;13.528;2022-07-03T03:31:08;17.30;99.90
2124;DHT22;1068;52.460;13.528;2022-07-03T03:33:39;17.10;99.90
2124;DHT22;1068;52.460;13.528;2022-07-03T03:36:07;16.70;99.90
2124;DHT22;1068;52.460;13.528;2022-07-03T03:38:33;16.80;99.90
2124;DHT22;1068;52.460;13.528;2022-07-03T03:41:02;16.90;99.90
2124;DHT22;1068;52.460;13.528;2022-07-03T03:43:29;17.00;99.90
2124;DHT22;1068;52.460;13.528;2022-07-03T03:45:56;17.10;99.90
2124;DHT22;1068;52.460;13.528;2022-07-03T03:48:22;17.20;99.90
2124;DHT22;1068;52.460;13.528;2022-07-03T03:50:50;17.20;99.90
2124;DHT22;1068;52.460;13.528;2022-07-03T03:53:18;17.10;99.90
2124;DHT22;1068;52.460;13.528;2022-07-03T03:55:58;17.00;99.90
2124;DHT22;1068;52.460;13.528;2022-07-03T03:58:25;17.00;99.90
2124;DHT22;1068;52.460;13.528;2022-07-03T04:00:52;16.60;99.90
2124;DHT22;1068;52.460;13.528;2022-07-03T04:03:19;16.30;99.90
2124;DHT22;1068;52.460;13.528;2022-07-03T04:05:45;16.20;99.90
2124;DHT22;1068;52.460;13.528;2022-07-03T04:08:13;16.10;99.90
2124;DHT22;1068;52.460;13.528;2022-07-03T04:10:39;16.00;99.90
2124;DHT22;1068;52.460;13.528;2022-07-03T04:13:06;16.00;99.90
2124;DHT22;1068;52.460;13.528;2022-07-03T04:15:32;16.10;99.90
2124;DHT22;1068;52.460;13.528;2022-07-03T04:17:59;16.10;99.90
2124;DHT22;1068;52.460;13.528;2022-07-03T04:20:25;16.20;99.90
2124;DHT22;1068;52.460;13.528;2022-07-03T04:22:52;16.40;99.90
2124;DHT22;1068;52.460;13.528;2022-07-03T04:25:20;16.50;99.90
2124;DHT22;1068;52.460;13.528;2022-07-03T04:27:46;16.50;99.90
2124;DHT22;1068;52.460;13.528;2022-07-03T04:30:13;16.50;99.90
2124;DHT22;1068;52.460;13.528;2022-07-03T04:32:39;16.60;99.90
2124;DHT22;1068;52.460;13.528;2022-07-03T04:35:06;16.60;99.90
2124;DHT22;1068;52.460;13.528;2022-07-03T04:37:33;16.60;99.90
2124;DHT22;1068;52.460;13.528;2022-07-03T04:40:00;16.70;99.90
2124;DHT22;1068;52.460;13.528;2022-07-03T04:42:27;16.80;99.90
2124;DHT22;1068;52.460;13.528;2022-07-03T04:44:54;16.90;99.90
2124;DHT22;1068;52.460;13.528;2022-07-03T04:47:21;16.90;99.90
2124;DHT22;1068;52.460;13.528;2022-07-03T04:49:47;17.00;99.90
2124;DHT22;1068;52.460;13.528;2022-07-03T04:52:14;17.20;99.90
2124;DHT22;1068;52.460;13.528;2022-07-03T04:54:40;17.30;99.90
2124;DHT22;1068;52.460;13.528;2022-07-03T04:57:07;17.50;99.90
2124;DHT22;1068;52.460;13.528;2022-07-03T04:59:34;17.70;99.90
2124;DHT22;1068;52.460;13.528;2022-07-03T05:02:01;17.80;99.90
2124;DHT22;1068;52.460;13.528;2022-07-03T05:04:27;18.00;99.90
2124;DHT22;1068;52.460;13.528;2022-07-03T05:06:54;18.20;99.90
2124;DHT22;1068;52.460;13.528;2022-07-03T05:09:21;18.30;99.90
2124;DHT22;1068;52.460;13.528;2022-07-03T05:11:48;18.50;99.90
2124;DHT22;1068;52.460;13.528;2022-07-03T05:14:14;18.60;99.90
2124;DHT22;1068;52.460;13.528;2022-07-03T05:16:42;18.70;99.90
2124;DHT22;1068;52.460;13.528;2022-07-03T05:19:08;18.80;99.90
2124;DHT22;1068;52.460;13.528;2022-07-03T05:21:35;19.00;99.90
2124;DHT22;1068;52.460;13.528;2022-07-03T05:24:01;19.20;99.90
2124;DHT22;1068;52.460;13.528;2022-07-03T05:26:28;19.30;99.90
2124;DHT22;1068;52.460;13.528;2022-07-03T05:28:54;19.50;99.90
2124;DHT22;1068;52.460;13.528;2022-07-03T05:31:21;19.50;99.90
2124;DHT22;1068;52.460;13.528;2022-07-03T05:33:49;19.80;99.90
2124;DHT22;1068;52.460;13.528;2022-07-03T05:36:15;19.90;99.90
2124;DHT22;1068;52.460;13.528;2022-07-03T05:38:41;19.90;99.90
2124;DHT22;1068;52.460;13.528;2022-07-03T05:41:26;20.00;99.90
2124;DHT22;1068;52.460;13.528;2022-07-03T05:43:52;20.40;99.90
2124;DHT22;1068;52.460;13.528;2022-07-03T05:46:19;20.50;99.90
2124;DHT22;1068;52.460;13.528;2022-07-03T05:48:45;20.60;99.90
2124;DHT22;1068;52.460;13.528;2022-07-03T05:51:13;20.70;99.90
2124;DHT22;1068;52.460;13.528;2022-07-03T05:53:39;20.60;99.90
2124;DHT22;1068;52.460;13.528;2022-07-03T05:56:06;20.70;99.90
2124;DHT22;1068;52.460;13.528;2022-07-03T05:58:33;20.60;99.90
2124;DHT22;1068;52.460;13.528;2022-07-03T06:00:59;20.60;99.90
2124;DHT22;1068;52.460;13.528;2022-07-03T06:03:26;20.80;99.90
2124;DHT22;1068;52.460;13.528;2022-07-03T06:05:52;21.00;99.90
2124;DHT22;1068;52.460;13.528;2022-07-03T06:08:20;21.20;99.90
2124;DHT22;1068;52.460;13.528;2022-07-03T06:10:46;21.30;99.90
2124;DHT22;1068;52.460;13.528;2022-07-03T06:13:13;21.40;99.90
2124;DHT22;1068;52.460;13.528;2022-07-03T06:15:39;21.40;99.90
2124;DHT22;1068;52.460;13.528;2022-07-03T06:18:06;21.60;99.90
2124;DHT22;1068;52.460;13.528;2022-07-03T06:20:32;21.70;99.90
2124;DHT22;1068;52.460;13.528;2022-07-03T06:22:59;21.50;99.90
2124;DHT22;1068;52.460;13.528;2022-07-03T06:25:26;21.70;99.90
2124;DHT22;1068;52.460;13.528;2022-07-03T06:27:53;22.10;99.90
2124;DHT22;1068;52.460;13.528;2022-07-03T06:30:20;22.30;99.90
2124;DHT22;1068;52.460;13.528;2022-07-03T06:32:46;22.50;99.90
2124;DHT22;1068;52.460;13.528;2022-07-03T06:35:13;22.60;99.90
2124;DHT22;1068;52.460;13.528;2022-07-03T06:37:39;22.40;99.90
2124;DHT22;1068;52.460;13.528;2022-07-03T06:40:07;22.70;99.90
2124;DHT22;1068;52.460;13.528;2022-07-03T06:42:35;22.80;99.90
2124;DHT22;1068;52.460;13.528;2022-07-03T06:45:01;22.90;99.90
2124;DHT22;1068;52.460;13.528;2022-07-03T06:47:28;23.20;99.90
2124;DHT22;1068;52.460;13.528;2022-07-03T06:49:54;23.30;99.90
2124;DHT22;1068;52.460;13.528;2022-07-03T06:52:20;23.20;99.90
2124;DHT22;1068;52.460;13.528;2022-07-03T06:54:47;23.20;99.90
2124;DHT22;1068;52.460;13.528;2022-07-03T06:57:14;23.30;99.90
2124;DHT22;1068;52.460;13.528;2022-07-03T06:59:41;23.30;99.90
2124;DHT22;1068;52.460;13.528;2022-07-03T07:02:08;23.50;99.90
2124;DHT22;1068;52.460;13.528;2022-07-03T07:04:34;23.60;99.90
2124;DHT22;1068;52.460;13.528;2022-07-03T07:07:01;23.60;99.90
2124;DHT22;1068;52.460;13.528;2022-07-03T07:09:27;23.80;99.90
2124;DHT22;1068;52.460;13.528;2022-07-03T07:11:54;23.90;99.90
2124;DHT22;1068;52.460;13.528;2022-07-03T07:14:20;23.60;99.90
2124;DHT22;1068;52.460;13.528;2022-07-03T07:16:48;23.50;99.90
2124;DHT22;1068;52.460;13.528;2022-07-03T07:19:15;23.50;99.90
2124;DHT22;1068;52.460;13.528;2022-07-03T07:21:41;23.70;99.90
2124;DHT22;1068;52.460;13.528;2022-07-03T07:24:08;23.90;99.90
2124;DHT22;1068;52.460;13.528;2022-07-03T07:26:34;24.00;99.90
2124;DHT22;1068;52.460;13.528;2022-07-03T07:29:01;24.00;99.90
2124;DHT22;1068;52.460;13.528;2022-07-03T07:31:27;24.00;99.90
2124;DHT22;1068;52.460;13.528;2022-07-03T07:33:55;23.70;99.90
2124;DHT22;1068;52.460;13.528;2022-07-03T07:36:21;24.00;99.90
2124;DHT22;1068;52.460;13.528;2022-07-03T07:38:48;24.30;99.90
2124;DHT22;1068;52.460;13.528;2022-07-03T07:41:15;24.50;99.90
2124;DHT22;1068;52.460;13.528;2022-07-03T07:43:41;24.50;99.90
2124;DHT22;1068;52.460;13.528;2022-07-03T07:46:08;24.50;99.90
2124;DHT22;1068;52.460;13.528;2022-07-03T07:48:35;24.50;99.90
2124;DHT22;1068;52.460;13.528;2022-07-03T07:51:02;24.60;99.90
2124;DHT22;1068;52.460;13.528;2022-07-03T07:53:29;24.90;99.90
2124;DHT22;1068;52.460;13.528;2022-07-03T07:55:55;25.10;99.90
2124;DHT22;1068;52.460;13.528;2022-07-03T07:58:22;25.10;99.90
2124;DHT22;1068;52.460;13.528;2022-07-03T08:00:49;25.30;99.90
2124;DHT22;1068;52.460;13.528;2022-07-03T08:03:32;25.50;99.90
2124;DHT22;1068;52.460;13.528;2022-07-03T08:06:18;25.50;99.90
2124;DHT22;1068;52.460;13.528;2022-07-03T08:08:45;24.90;99.90
2124;DHT22;1068;52.460;13.528;2022-07-03T08:11:11;25.00;99.90
2124;DHT22;1068;52.460;13.528;2022-07-03T08:13:37;25.00;99.90
2124;DHT22;1068;52.460;13.528;2022-07-03T08:16:04;25.20;99.90
2124;DHT22;1068;52.460;13.528;2022-07-03T08:18:31;25.30;99.90
2124;DHT22;1068;52.460;13.528;2022-07-03T08:20:58;25.50;99.90
2124;DHT22;1068;52.460;13.528;2022-07-03T08:23:26;25.60;99.90
2124;DHT22;1068;52.460;13.528;2022-07-03T08:25:53;25.90;99.90
2124;DHT22;1068;52.460;13.528;2022-07-03T08:28:19;26.00;99.90
2124;DHT22;1068;52.460;13.528;2022-07-03T08:30:46;26.30;99.90
2124;DHT22;1068;52.460;13.528;2022-07-03T08:33:12;26.10;99.90
2124;DHT22;1068;52.460;13.528;2022-07-03T08:35:39;25.70;99.90
2124;DHT22;1068;52.460;13.528;2022-07-03T08:38:05;25.60;99.90
2124;DHT22;1068;52.460;13.528;2022-07-03T08:40:34;25.30;99.90
2124;DHT22;1068;52.460;13.528;2022-07-03T08:43:00;25.30;99.90
2124;DHT22;1068;52.460;13.528;2022-07-03T08:45:30;25.60;99.90
2124;DHT22;1068;52.460;13.528;2022-07-03T08:47:57;25.90;99.90
2124;DHT22;1068;52.460;13.528;2022-07-03T08:50:25;26.30;99.90
2124;DHT22;1068;52.460;13.528;2022-07-03T08:52:52;26.60;99.90
2124;DHT22;1068;52.460;13.528;2022-07-03T08:55:19;26.20;99.90
2124;DHT22;1068;52.460;13.528;2022-07-03T08:57:48;26.20;99.90
2124;DHT22;1068;52.460;13.528;2022-07-03T09:00:17;26.40;99.90
2124;DHT22;1068;52.460;13.528;2022-07-03T09:02:44;26.60;99.90
2124;DHT22;1068;52.460;13.528;2022-07-03T09:05:12;26.70;98.90
2124;DHT22;1068;52.460;13.528;2022-07-03T09:07:41;26.60;98.70
2124;DHT22;1068;52.460;13.528;2022-07-03T09:10:09;26.60;98.70
2124;DHT22;1068;52.460;13.528;2022-07-03T09:12:36;27.00;98.30
2124;DHT22;1068;52.460;13.528;2022-07-03T09:15:06;26.70;97.50
2124;DHT22;1068;52.460;13.528;2022-07-03T09:17:33;26.20;98.40
2124;DHT22;1068;52.460;13.528;2022-07-03T09:20:02;26.20;98.30
2124;DHT22;1068;52.460;13.528;2022-07-03T09:22:30;26.60;99.10
2124;DHT22;1068;52.460;13.528;2022-07-03T09:25:03;27.00;98.70
2124;DHT22;1068;52.460;13.528;2022-07-03T09:27:30;27.30;98.90
2124;DHT22;1068;52.460;13.528;2022-07-03T09:29:58;27.30;98.00
2124;DHT22;1068;52.460;13.528;2022-07-03T09:32:31;27.00;97.70
2124;DHT22;1068;52.460;13.528;2022-07-03T09:35:13;26.90;96.80
2124;DHT22;1068;52.460;13.528;2022-07-03T09:37:40;26.80;96.40
2124;DHT22;1068;52.460;13.528;2022-07-03T09:40:07;26.70;96.90
2124;DHT22;1068;52.460;13.528;2022-07-03T09:42:34;27.00;96.30
2124;DHT22;1068;52.460;13.528;2022-07-03T09:45:00;27.40;96.10
2124;DHT22;1068;52.460;13.528;2022-07-03T09:47:28;27.50;95.90
2124;DHT22;1068;52.460;13.528;2022-07-03T09:49:56;27.20;96.00
2124;DHT22;1068;52.460;13.528;2022-07-03T09:52:28;27.30;97.30
2124;DHT22;1068;52.460;13.528;2022-07-03T09:54:55;27.70;96.60
2124;DHT22;1068;52.460;13.528;2022-07-03T09:57:22;27.80;95.00
2124;DHT22;1068;52.460;13.528;2022-07-03T09:59:49;27.60;94.40
2124;DHT22;1068;52.460;13.528;2022-07-03T10:02:15;28.00;95.10
2124;DHT22;1068;52.460;13.528;2022-07-03T10:04:43;28.20;94.90
2124;DHT22;1068;52.460;13.528;2022-07-03T10:07:09;28.20;93.80
2124;DHT22;1068;52.460;13.528;2022-07-03T10:09:36;28.50;93.20
2124;DHT22;1068;52.460;13.528;2022-07-03T10:12:04;28.30;93.10
2124;DHT22;1068;52.460;13.528;2022-07-03T10:14:32;28.20;93.00
2124;DHT22;1068;52.460;13.528;2022-07-03T10:16:59;27.60;92.40
2124;DHT22;1068;52.460;13.528;2022-07-03T10:19:28;27.30;93.20
2124;DHT22;1068;52.460;13.528;2022-07-03T10:21:57;27.90;94.40
2124;DHT22;1068;52.460;13.528;2022-07-03T10:24:26;28.10;93.40
2124;DHT22;1068;52.460;13.528;2022-07-03T10:26:53;27.40;94.20
2124;DHT22;1068;52.460;13.528;2022-07-03T10:29:21;27.90;94.40
2124;DHT22;1068;52.460;13.528;2022-07-03T10:31:48;28.20;92.20
2124;DHT22;1068;52.460;13.528;2022-07-03T10:34:16;28.30;92.40
2124;DHT22;1068;52.460;13.528;2022-07-03T10:36:45;28.50;92.30
2124;DHT22;1068;52.460;13.528;2022-07-03T10:39:24;28.30;91.40
2124;DHT22;1068;52.460;13.528;2022-07-03T10:41:54;28.90;92.40
2124;DHT22;1068;52.460;13.528;2022-07-03T10:44:55;29.10;91.50
2124;DHT22;1068;52.460;13.528;2022-07-03T10:47:39;29.50;90.60
2124;DHT22;1068;52.460;13.528;2022-07-03T10:50:08;29.80;89.00
2124;DHT22;1068;52.460;13.528;2022-07-03T10:52:36;30.00;85.80
2124;DHT22;1068;52.460;13.528;2022-07-03T10:55:05;30.00;85.10
2124;DHT22;1068;52.460;13.528;2022-07-03T10:57:33;30.00;85.10
2124;DHT22;1068;52.460;13.528;2022-07-03T11:00:08;30.00;84.40
2124;DHT22;1068;52.460;13.528;2022-07-03T11:02:39;29.60;84.90
2124;DHT22;1068;52.460;13.528;2022-07-03T11:05:20;29.90;85.70
2124;DHT22;1068;52.460;13.528;2022-07-03T11:08:04;28.80;84.90
2124;DHT22;1068;52.460;13.528;2022-07-03T11:10:35;28.80;84.80
2124;DHT22;1068;52.460;13.528;2022-07-03T11:13:08;29.20;82.80
2124;DHT22;1068;52.460;13.528;2022-07-03T11:15:39;29.60;84.20
2124;DHT22;1068;52.460;13.528;2022-07-03T11:18:19;29.80;84.10
2124;DHT22;1068;52.460;13.528;2022-07-03T11:24:11;30.10;82.50
2124;DHT22;1068;52.460;13.528;2022-07-03T11:26:40;29.70;80.40
2124;DHT22;1068;52.460;13.528;2022-07-03T11:29:07;30.10;79.90
2124;DHT22;1068;52.460;13.528;2022-07-03T11:31:50;30.40;80.10
2124;DHT22;1068;52.460;13.528;2022-07-03T11:34:19;30.50;79.80
2124;DHT22;1068;52.460;13.528;2022-07-03T11:36:46;29.90;81.50
2124;DHT22;1068;52.460;13.528;2022-07-03T11:39:13;29.80;81.50
2124;DHT22;1068;52.460;13.528;2022-07-03T11:41:46;30.00;80.90
2124;DHT22;1068;52.460;13.528;2022-07-03T11:44:18;30.20;78.30
2124;DHT22;1068;52.460;13.528;2022-07-03T11:46:50;29.70;80.90
2124;DHT22;1068;52.460;13.528;2022-07-03T11:49:18;30.20;77.80
2124;DHT22;1068;52.460;13.528;2022-07-03T11:51:58;30.30;80.40
2124;DHT22;1068;52.460;13.528;2022-07-03T11:54:26;29.70;78.90
2124;DHT22;1068;52.460;13.528;2022-07-03T11:56:56;29.80;79.90
2124;DHT22;1068;52.460;13.528;2022-07-03T11:59:23;29.40;78.20
2124;DHT22;1068;52.460;13.528;2022-07-03T12:01:50;29.40;78.60
2124;DHT22;1068;52.460;13.528;2022-07-03T12:04:19;30.00;77.90
2124;DHT22;1068;52.460;13.528;2022-07-03T12:06:48;29.30;79.10
2124;DHT22;1068;52.460;13.528;2022-07-03T12:09:19;29.20;80.90
2124;DHT22;1068;52.460;13.528;2022-07-03T12:11:58;29.60;80.10
2124;DHT22;1068;52.460;13.528;2022-07-03T12:14:43;29.40;79.20
2124;DHT22;1068;52.460;13.528;2022-07-03T12:17:11;29.40;80.00
2124;DHT22;1068;52.460;13.528;2022-07-03T12:19:39;28.60;79.60
2124;DHT22;1068;52.460;13.528;2022-07-03T12:22:10;28.70;80.40
2124;DHT22;1068;52.460;13.528;2022-07-03T12:24:37;29.10;79.70
2124;DHT22;1068;52.460;13.528;2022-07-03T12:27:06;28.80;80.50
2124;DHT22;1068;52.460;13.528;2022-07-03T12:29:33;28.60;81.70
2124;DHT22;1068;52.460;13.528;2022-07-03T12:32:00;28.70;81.70
2124;DHT22;1068;52.460;13.528;2022-07-03T12:34:27;28.20;82.00
2124;DHT22;1068;52.460;13.528;2022-07-03T12:36:55;28.20;84.70
2124;DHT22;1068;52.460;13.528;2022-07-03T12:39:22;28.40;80.90
2124;DHT22;1068;52.460;13.528;2022-07-03T12:41:49;28.30;82.20
2124;DHT22;1068;52.460;13.528;2022-07-03T12:44:17;28.80;80.90
2124;DHT22;1068;52.460;13.528;2022-07-03T12:46:46;28.70;80.00
2124;DHT22;1068;52.460;13.528;2022-07-03T12:49:13;29.00;80.60
2124;DHT22;1068;52.460;13.528;2022-07-03T12:51:41;29.30;80.40
2124;DHT22;1068;52.460;13.528;2022-07-03T12:54:09;29.20;79.50
2124;DHT22;1068;52.460;13.528;2022-07-03T12:56:36;29.20;79.30
2124;DHT22;1068;52.460;13.528;2022-07-03T12:59:03;29.50;80.60
2124;DHT22;1068;52.460;13.528;2022-07-03T13:01:45;30.00;79.10
2124;DHT22;1068;52.460;13.528;2022-07-03T13:04:12;30.50;76.60
2124;DHT22;1068;52.460;13.528;2022-07-03T13:06:43;30.70;75.00
2124;DHT22;1068;52.460;13.528;2022-07-03T13:09:10;30.80;75.70
2124;DHT22;1068;52.460;13.528;2022-07-03T13:11:39;30.50;74.70
2124;DHT22;1068;52.460;13.528;2022-07-03T13:14:08;30.50;75.00
2124;DHT22;1068;52.460;13.528;2022-07-03T13:16:39;30.70;74.70
2124;DHT22;1068;52.460;13.528;2022-07-03T13:19:09;30.20;73.40
2124;DHT22;1068;52.460;13.528;2022-07-03T13:21:36;29.70;75.70
2124;DHT22;1068;52.460;13.528;2022-07-03T13:24:04;29.50;76.30
2124;DHT22;1068;52.460;13.528;2022-07-03T13:26:30;29.00;76.70
2124;DHT22;1068;52.460;13.528;2022-07-03T13:28:57;28.70;77.80
2124;DHT22;1068;52.460;13.528;2022-07-03T13:31:23;28.70;79.10
2124;DHT22;1068;52.460;13.528;2022-07-03T13:33:50;29.00;78.90
2124;DHT22;1068;52.460;13.528;2022-07-03T13:36:18;29.00;78.30
2124;DHT22;1068;52.460;13.528;2022-07-03T13:38:44;29.40;76.80
2124;DHT22;1068;52.460;13.528;2022-07-03T13:41:11;29.20;75.60
2124;DHT22;1068;52.460;13.528;2022-07-03T13:43:37;29.40;77.90
2124;DHT22;1068;52.460;13.528;2022-07-03T13:46:04;29.80;78.60
2124;DHT22;1068;52.460;13.528;2022-07-03T13:48:31;29.50;76.30
2124;DHT22;1068;52.460;13.528;2022-07-03T13:50:57;29.30;78.00
2124;DHT22;1068;52.460;13.528;2022-07-03T13:53:25;29.20;77.90
2124;DHT22;1068;52.460;13.528;2022-07-03T13:55:54;29.30;77.60
2124;DHT22;1068;52.460;13.528;2022-07-03T13:58:21;29.90;77.10
2124;DHT22;1068;52.460;13.528;2022-07-03T14:00:47;30.50;77.20
2124;DHT22;1068;52.460;13.528;2022-07-03T14:03:14;30.80;74.80
2124;DHT22;1068;52.460;13.528;2022-07-03T14:05:40;31.00;75.10
2124;DHT22;1068;52.460;13.528;2022-07-03T14:08:07;30.50;72.30
2124;DHT22;1068;52.460;13.528;2022-07-03T14:10:34;30.00;73.20
2124;DHT22;1068;52.460;13.528;2022-07-03T14:13:01;30.20;73.50
2124;DHT22;1068;52.460;13.528;2022-07-03T14:15:27;30.50;74.10
2124;DHT22;1068;52.460;13.528;2022-07-03T14:17:54;30.20;75.20
2124;DHT22;1068;52.460;13.528;2022-07-03T14:20:24;30.40;73.20
2124;DHT22;1068;52.460;13.528;2022-07-03T14:22:50;30.10;71.80
2124;DHT22;1068;52.460;13.528;2022-07-03T14:25:17;29.50;73.80
2124;DHT22;1068;52.460;13.528;2022-07-03T14:27:45;29.30;74.10
2124;DHT22;1068;52.460;13.528;2022-07-03T14:30:29;29.40;73.90
2124;DHT22;1068;52.460;13.528;2022-07-03T14:33:09;29.30;74.30
2124;DHT22;1068;52.460;13.528;2022-07-03T14:35:36;29.50;74.30
2124;DHT22;1068;52.460;13.528;2022-07-03T14:38:03;29.90;76.30
2124;DHT22;1068;52.460;13.528;2022-07-03T14:40:29;30.20;76.50
2124;DHT22;1068;52.460;13.528;2022-07-03T14:42:57;30.60;74.70
2124;DHT22;1068;52.460;13.528;2022-07-03T14:45:24;30.70;73.10
2124;DHT22;1068;52.460;13.528;2022-07-03T14:47:51;30.60;72.40
2124;DHT22;1068;52.460;13.528;2022-07-03T14:50:17;30.60;73.00
2124;DHT22;1068;52.460;13.528;2022-07-03T14:52:44;30.40;72.10
2124;DHT22;1068;52.460;13.528;2022-07-03T14:55:11;30.20;72.70
2124;DHT22;1068;52.460;13.528;2022-07-03T14:57:45;30.40;72.70
2124;DHT22;1068;52.460;13.528;2022-07-03T15:00:15;30.80;73.90
2124;DHT22;1068;52.460;13.528;2022-07-03T15:02:44;31.30;72.30
2124;DHT22;1068;52.460;13.528;2022-07-03T15:05:12;31.10;70.10
2124;DHT22;1068;52.460;13.528;2022-07-03T15:07:41;31.20;69.70
2124;DHT22;1068;52.460;13.528;2022-07-03T15:10:09;31.10;66.90
2124;DHT22;1068;52.460;13.528;2022-07-03T15:12:40;31.20;68.10
2124;DHT22;1068;52.460;13.528;2022-07-03T15:15:09;31.20;65.40
2124;DHT22;1068;52.460;13.528;2022-07-03T15:17:38;31.10;65.30
2124;DHT22;1068;52.460;13.528;2022-07-03T15:20:07;31.30;67.10
2124;DHT22;1068;52.460;13.528;2022-07-03T15:22:38;31.50;66.80
2124;DHT22;1068;52.460;13.528;2022-07-03T15:25:06;31.70;66.70
2124;DHT22;1068;52.460;13.528;2022-07-03T15:27:33;31.80;66.50
2124;DHT22;1068;52.460;13.528;2022-07-03T15:30:00;31.60;65.30
2124;DHT22;1068;52.460;13.528;2022-07-03T15:32:27;31.60;65.50
2124;DHT22;1068;52.460;13.528;2022-07-03T15:34:55;31.50;66.60
2124;DHT22;1068;52.460;13.528;2022-07-03T15:37:44;31.60;67.90
2124;DHT22;1068;52.460;13.528;2022-07-03T15:40:18;31.50;67.40
2124;DHT22;1068;52.460;13.528;2022-07-03T15:42:56;31.50;67.80
2124;DHT22;1068;52.460;13.528;2022-07-03T15:45:35;31.40;68.60
2124;DHT22;1068;52.460;13.528;2022-07-03T15:48:09;31.50;69.10
2124;DHT22;1068;52.460;13.528;2022-07-03T15:50:46;31.40;68.00
2124;DHT22;1068;52.460;13.528;2022-07-03T15:53:19;31.30;68.60
2124;DHT22;1068;52.460;13.528;2022-07-03T15:55:46;31.20;68.90
2124;DHT22;1068;52.460;13.528;2022-07-03T15:58:14;31.10;69.40
2124;DHT22;1068;52.460;13.528;2022-07-03T16:00:41;31.10;69.70
2124;DHT22;1068;52.460;13.528;2022-07-03T16:03:32;30.70;69.70